createdAt,value
2018-08-07T00:00:45.931Z,21.70
2018-08-07T00:01:45.863Z,21.66
2018-08-07T00:02:45.756Z,21.64
2018-08-07T00:03:45.668Z,21.52
2018-08-07T00:04:45.581Z,21.74
2018-08-07T00:05:45.496Z,21.64
2018-08-07T00:06:45.422Z,21.63
2018-08-07T00:07:45.317Z,21.61
2018-08-07T00:08:45.230Z,21.67
2018-08-07T00:09:45.144Z,21.73
2018-08-07T00:10:45.056Z,21.63
2018-08-07T00:11:44.970Z,21.66
2018-08-07T00:12:44.897Z,21.64
2018-08-07T00:13:44.795Z,21.68
2018-08-07T00:14:44.710Z,21.74
2018-08-07T00:15:44.620Z,21.68
2018-08-07T00:16:44.538Z,21.70
2018-08-07T00:17:44.457Z,21.71
2018-08-07T00:18:44.353Z,21.68
2018-08-07T00:19:44.271Z,21.70
2018-08-07T00:20:44.179Z,21.70
2018-08-07T00:21:44.092Z,21.66
2018-08-07T00:22:44.019Z,21.67
2018-08-07T00:23:43.918Z,21.70
2018-08-07T00:24:43.828Z,21.71
2018-08-07T00:25:43.741Z,21.66
2018-08-07T00:26:43.653Z,21.66
2018-08-07T00:27:43.580Z,21.52
2018-08-07T00:28:43.484Z,21.51
2018-08-07T00:29:43.391Z,21.36
2018-08-07T00:30:43.303Z,21.42
2018-08-07T00:31:43.216Z,21.51
2018-08-07T00:32:43.144Z,21.37
2018-08-07T00:33:43.039Z,21.36
2018-08-07T00:34:42.964Z,21.38
2018-08-07T00:35:42.863Z,21.43
2018-08-07T00:36:42.775Z,21.59
2018-08-07T00:37:42.723Z,21.64
2018-08-07T00:38:42.602Z,21.52
2018-08-07T00:39:42.621Z,21.66
2018-08-07T00:40:42.425Z,21.52
2018-08-07T00:41:42.339Z,21.61
2018-08-07T00:42:42.264Z,21.48
2018-08-07T00:43:42.162Z,21.42
2018-08-07T00:44:42.074Z,21.37
2018-08-07T00:45:41.986Z,21.42
2018-08-07T00:46:42.021Z,21.36
2018-08-07T00:47:41.827Z,21.52
2018-08-07T00:48:41.722Z,21.46
2018-08-07T00:49:41.635Z,21.45
2018-08-07T00:50:41.555Z,21.49
2018-08-07T00:51:41.460Z,21.38
2018-08-07T00:52:41.388Z,21.38
2018-08-07T00:53:41.392Z,21.36
2018-08-07T00:54:41.200Z,21.27
2018-08-07T00:55:41.108Z,21.40
2018-08-07T00:56:41.022Z,21.33
2018-08-07T00:57:40.935Z,21.27
2018-08-07T00:58:40.863Z,21.36
2018-08-07T00:59:40.758Z,21.42
2018-08-07T01:00:40.778Z,21.43
2018-08-07T01:01:40.584Z,21.28
2018-08-07T01:02:40.498Z,21.34
2018-08-07T01:03:40.421Z,21.31
2018-08-07T01:04:40.320Z,21.27
2018-08-07T01:05:40.230Z,21.37
2018-08-07T01:06:40.168Z,21.36
2018-08-07T01:07:40.161Z,21.26
2018-08-07T01:08:39.987Z,21.36
2018-08-07T01:09:39.880Z,21.40
2018-08-07T01:10:39.793Z,21.36
2018-08-07T01:11:39.704Z,21.42
2018-08-07T01:12:39.616Z,21.43
2018-08-07T01:13:39.543Z,21.33
2018-08-07T01:14:39.546Z,21.27
2018-08-07T01:15:39.354Z,21.31
2018-08-07T01:16:39.268Z,21.30
2018-08-07T01:17:39.176Z,21.24
2018-08-07T01:18:39.106Z,21.22
2018-08-07T01:19:39.000Z,21.34
2018-08-07T01:20:38.914Z,21.38
2018-08-07T01:21:38.940Z,21.51
2018-08-07T01:22:38.744Z,21.40
2018-08-07T01:23:38.668Z,21.40
2018-08-07T01:24:38.563Z,21.28
2018-08-07T01:25:38.475Z,21.38
2018-08-07T01:26:38.388Z,21.30
2018-08-07T01:27:38.298Z,21.22
2018-08-07T01:28:38.354Z,21.13
2018-08-07T01:29:38.124Z,21.15
2018-08-07T01:30:38.036Z,21.13
2018-08-07T01:31:37.947Z,21.18
2018-08-07T01:32:37.860Z,21.22
2018-08-07T01:33:37.788Z,21.11
2018-08-07T01:34:37.687Z,21.26
2018-08-07T01:35:37.703Z,21.26
2018-08-07T01:36:37.511Z,21.26
2018-08-07T01:37:37.421Z,21.31
2018-08-07T01:38:37.350Z,21.37
2018-08-07T01:39:37.246Z,21.33
2018-08-07T01:40:37.160Z,21.27
2018-08-07T01:41:37.072Z,21.34
2018-08-07T01:42:37.088Z,21.27
2018-08-07T01:43:36.897Z,21.31
2018-08-07T01:44:36.823Z,21.31
2018-08-07T01:45:36.717Z,21.26
2018-08-07T01:46:36.631Z,21.31
2018-08-07T01:47:36.544Z,21.22
2018-08-07T01:48:36.456Z,21.26
2018-08-07T01:49:36.506Z,21.33
2018-08-07T01:50:36.279Z,21.27
2018-08-07T01:51:36.190Z,21.31
2018-08-07T01:52:36.106Z,21.30
2018-08-07T01:53:36.020Z,21.22
2018-08-07T01:54:35.943Z,21.40
2018-08-07T01:55:35.838Z,21.40
2018-08-07T01:56:35.858Z,21.34
2018-08-07T01:57:35.665Z,21.38
2018-08-07T01:58:35.576Z,21.43
2018-08-07T01:59:35.507Z,21.45
2018-08-07T02:00:35.401Z,21.43
2018-08-07T02:01:35.319Z,21.30
2018-08-07T02:02:35.226Z,21.31
2018-08-07T02:03:35.136Z,21.40
2018-08-07T02:04:35.066Z,21.38
2018-08-07T02:05:34.962Z,21.43
2018-08-07T02:06:34.873Z,21.31
2018-08-07T02:07:34.786Z,21.27
2018-08-07T02:08:35.464Z,21.26
2018-08-07T02:09:34.624Z,21.27
2018-08-07T02:10:34.545Z,21.27
2018-08-07T02:11:34.433Z,21.30
2018-08-07T02:12:34.348Z,21.28
2018-08-07T02:13:34.259Z,21.27
2018-08-07T02:14:34.187Z,21.19
2018-08-07T02:15:34.083Z,21.09
2018-08-07T02:16:33.994Z,21.09
2018-08-07T02:17:33.907Z,21.00
2018-08-07T02:18:33.820Z,21.12
2018-08-07T02:19:33.746Z,21.12
2018-08-07T02:20:33.646Z,21.05
2018-08-07T02:21:33.575Z,21.12
2018-08-07T02:22:33.468Z,21.24
2018-08-07T02:23:33.379Z,21.16
2018-08-07T02:24:33.305Z,21.15
2018-08-07T02:25:33.205Z,21.26
2018-08-07T02:26:33.118Z,21.13
2018-08-07T02:27:33.029Z,21.22
2018-08-07T02:28:32.940Z,21.16
2018-08-07T02:29:32.856Z,21.12
2018-08-07T02:30:32.780Z,21.03
2018-08-07T02:31:32.676Z,21.00
2018-08-07T02:32:32.588Z,20.96
2018-08-07T02:33:32.501Z,21.16
2018-08-07T02:34:32.446Z,21.12
2018-08-07T02:35:32.343Z,21.18
2018-08-07T02:36:32.236Z,21.18
2018-08-07T02:37:32.151Z,21.33
2018-08-07T02:38:32.067Z,21.24
2018-08-07T02:39:31.975Z,21.26
2018-08-07T02:40:31.899Z,21.26
2018-08-07T02:41:31.797Z,21.18
2018-08-07T02:42:31.710Z,21.28
2018-08-07T02:43:31.621Z,21.28
2018-08-07T02:44:31.555Z,21.18
2018-08-07T02:45:31.463Z,21.19
2018-08-07T02:46:31.357Z,21.18
2018-08-07T02:47:31.271Z,21.11
2018-08-07T02:48:31.181Z,21.13
2018-08-07T02:49:31.096Z,21.09
2018-08-07T02:50:31.021Z,21.05
2018-08-07T02:51:30.920Z,21.12
2018-08-07T02:52:30.832Z,21.12
2018-08-07T02:53:30.744Z,21.08
2018-08-07T02:54:30.659Z,21.06
2018-08-07T02:55:30.582Z,21.11
2018-08-07T02:56:30.478Z,21.09
2018-08-07T02:57:30.392Z,20.98
2018-08-07T02:58:30.303Z,21.00
2018-08-07T02:59:30.214Z,20.96
2018-08-07T03:00:30.142Z,20.97
2018-08-07T03:01:30.039Z,21.09
2018-08-07T03:02:29.954Z,20.91
2018-08-07T03:03:29.864Z,21.09
2018-08-07T03:04:29.775Z,20.91
2018-08-07T03:05:29.702Z,21.05
2018-08-07T03:06:29.600Z,21.00
2018-08-07T03:07:29.510Z,20.88
2018-08-07T03:08:29.424Z,20.87
2018-08-07T03:09:29.336Z,21.00
2018-08-07T03:10:29.263Z,20.94
2018-08-07T03:11:29.158Z,20.83
2018-08-07T03:12:29.072Z,20.83
2018-08-07T03:13:28.983Z,20.90
2018-08-07T03:14:28.896Z,20.87
2018-08-07T03:15:28.831Z,20.82
2018-08-07T03:16:28.721Z,20.73
2018-08-07T03:17:28.630Z,20.90
2018-08-07T03:18:28.543Z,20.81
2018-08-07T03:19:28.457Z,20.79
2018-08-07T03:20:28.369Z,20.85
2018-08-07T03:21:28.296Z,20.90
2018-08-07T03:22:28.192Z,20.85
2018-08-07T03:23:28.105Z,20.85
2018-08-07T03:24:28.016Z,20.81
2018-08-07T03:25:27.957Z,20.85
2018-08-07T03:26:27.840Z,20.83
2018-08-07T03:27:27.750Z,20.83
2018-08-07T03:28:27.662Z,20.78
2018-08-07T03:29:27.578Z,20.78
2018-08-07T03:30:27.487Z,20.79
2018-08-07T03:31:27.416Z,20.78
2018-08-07T03:32:27.313Z,20.90
2018-08-07T03:33:27.223Z,20.79
2018-08-07T03:34:27.134Z,20.91
2018-08-07T03:35:27.046Z,20.72
2018-08-07T03:36:26.977Z,20.81
2018-08-07T03:37:26.870Z,20.83
2018-08-07T03:38:26.781Z,20.81
2018-08-07T03:39:26.693Z,20.75
2018-08-07T03:40:26.710Z,20.81
2018-08-07T03:41:26.536Z,20.93
2018-08-07T03:42:26.429Z,20.82
2018-08-07T03:43:26.340Z,20.69
2018-08-07T03:44:26.254Z,20.76
2018-08-07T03:45:26.167Z,20.75
2018-08-07T03:46:26.093Z,20.90
2018-08-07T03:47:26.094Z,20.83
2018-08-07T03:48:25.902Z,20.94
2018-08-07T03:49:25.813Z,20.87
2018-08-07T03:50:25.726Z,20.81
2018-08-07T03:51:25.638Z,20.66
2018-08-07T03:52:25.564Z,20.81
2018-08-07T03:53:25.463Z,20.73
2018-08-07T03:54:25.483Z,20.73
2018-08-07T03:55:25.283Z,20.73
2018-08-07T03:56:25.197Z,20.73
2018-08-07T03:57:25.122Z,20.66
2018-08-07T03:58:25.910Z,20.58
2018-08-07T03:59:24.931Z,20.53
2018-08-07T04:00:24.844Z,20.56
2018-08-07T04:01:24.866Z,20.58
2018-08-07T04:02:24.683Z,20.66
2018-08-07T04:03:24.578Z,20.68
2018-08-07T04:04:24.491Z,20.58
2018-08-07T04:05:24.403Z,20.69
2018-08-07T04:06:24.317Z,20.54
2018-08-07T04:07:24.244Z,20.58
2018-08-07T04:08:24.244Z,20.60
2018-08-07T04:09:24.052Z,20.71
2018-08-07T04:10:23.959Z,20.66
2018-08-07T04:11:23.875Z,20.60
2018-08-07T04:12:23.802Z,20.58
2018-08-07T04:13:23.697Z,20.60
2018-08-07T04:14:23.609Z,20.58
2018-08-07T04:15:23.627Z,20.71
2018-08-07T04:16:23.436Z,20.63
2018-08-07T04:17:23.362Z,20.53
2018-08-07T04:18:23.257Z,20.56
2018-08-07T04:19:23.176Z,20.48
2018-08-07T04:20:23.080Z,20.48
2018-08-07T04:21:22.992Z,20.61
2018-08-07T04:22:23.024Z,20.60
2018-08-07T04:23:22.817Z,20.60
2018-08-07T04:24:22.726Z,20.58
2018-08-07T04:25:22.641Z,20.53
2018-08-07T04:26:22.552Z,20.71
2018-08-07T04:27:22.478Z,20.71
2018-08-07T04:28:22.374Z,20.79
2018-08-07T04:29:22.393Z,20.88
2018-08-07T04:30:22.198Z,20.87
2018-08-07T04:31:22.112Z,20.93
2018-08-07T04:32:22.041Z,20.91
2018-08-07T04:33:21.935Z,20.87
2018-08-07T04:34:21.896Z,20.88
2018-08-07T04:35:21.761Z,20.82
2018-08-07T04:36:21.773Z,20.90
2018-08-07T04:37:21.589Z,20.85
2018-08-07T04:38:21.509Z,20.96
2018-08-07T04:39:21.404Z,21.16
2018-08-07T04:40:21.317Z,21.01
2018-08-07T04:41:21.231Z,21.05
2018-08-07T04:42:21.143Z,21.03
2018-08-07T04:43:21.071Z,21.08
2018-08-07T04:44:20.965Z,21.12
2018-08-07T04:45:20.878Z,21.15
2018-08-07T04:46:20.789Z,21.15
2018-08-07T04:47:20.700Z,21.19
2018-08-07T04:48:20.630Z,21.28
2018-08-07T04:49:20.527Z,21.43
2018-08-07T04:50:20.440Z,21.51
2018-08-07T04:51:20.348Z,21.74
2018-08-07T04:52:20.262Z,21.91
2018-08-07T04:53:20.194Z,21.81
2018-08-07T04:54:20.091Z,21.82
2018-08-07T04:55:20.063Z,21.71
2018-08-07T04:56:19.911Z,21.74
2018-08-07T04:57:19.823Z,21.68
2018-08-07T04:58:19.860Z,21.73
2018-08-07T04:59:19.650Z,21.74
2018-08-07T05:00:19.562Z,21.71
2018-08-07T05:01:19.476Z,21.98
2018-08-07T05:02:19.386Z,21.96
2018-08-07T05:03:19.314Z,22.06
2018-08-07T05:04:19.341Z,22.06
2018-08-07T05:05:19.125Z,22.08
2018-08-07T05:06:19.038Z,22.20
2018-08-07T05:07:18.952Z,22.08
2018-08-07T05:08:18.882Z,22.06
2018-08-07T05:09:18.778Z,22.04
2018-08-07T05:10:18.713Z,21.96
2018-08-07T05:11:18.606Z,21.96
2018-08-07T05:12:18.518Z,21.96
2018-08-07T05:13:18.447Z,21.93
2018-08-07T05:14:18.403Z,21.96
2018-08-07T05:15:18.254Z,21.96
2018-08-07T05:16:18.169Z,22.02
2018-08-07T05:17:18.081Z,21.94
2018-08-07T05:18:18.010Z,21.93
2018-08-07T05:19:17.911Z,21.91
2018-08-07T05:20:17.821Z,21.91
2018-08-07T05:21:17.734Z,22.01
2018-08-07T05:22:17.648Z,22.08
2018-08-07T05:23:17.579Z,22.14
2018-08-07T05:24:17.488Z,22.33
2018-08-07T05:25:17.386Z,22.29
2018-08-07T05:26:17.300Z,22.35
2018-08-07T05:27:17.213Z,22.26
2018-08-07T05:28:17.129Z,22.39
2018-08-07T05:29:17.054Z,22.31
2018-08-07T05:30:16.952Z,22.48
2018-08-07T05:31:16.864Z,22.44
2018-08-07T05:32:16.777Z,22.52
2018-08-07T05:33:16.691Z,22.52
2018-08-07T05:34:16.620Z,22.64
2018-08-07T05:35:16.517Z,22.69
2018-08-07T05:36:16.433Z,22.63
2018-08-07T05:37:16.345Z,22.72
2018-08-07T05:38:16.259Z,22.78
2018-08-07T05:39:16.185Z,22.76
2018-08-07T05:40:16.083Z,22.84
2018-08-07T05:41:15.996Z,22.89
2018-08-07T05:42:15.934Z,22.91
2018-08-07T05:43:15.823Z,22.96
2018-08-07T05:44:15.751Z,22.89
2018-08-07T05:45:15.651Z,22.82
2018-08-07T05:46:15.582Z,22.91
2018-08-07T05:47:15.476Z,22.88
2018-08-07T05:48:15.390Z,22.93
2018-08-07T05:49:15.318Z,22.91
2018-08-07T05:50:15.365Z,22.79
2018-08-07T05:51:15.422Z,22.82
2018-08-07T05:52:15.046Z,22.85
2018-08-07T05:53:14.957Z,23.00
2018-08-07T05:54:14.890Z,23.00
2018-08-07T05:55:14.834Z,23.14
2018-08-07T05:56:14.698Z,23.25
2018-08-07T05:57:14.612Z,23.38
2018-08-07T05:58:14.528Z,23.54
2018-08-07T05:59:14.501Z,23.62
2018-08-07T06:00:14.353Z,23.38
2018-08-07T06:01:14.265Z,23.38
2018-08-07T06:02:14.180Z,23.52
2018-08-07T06:03:14.095Z,23.45
2018-08-07T06:04:14.022Z,23.64
2018-08-07T06:05:13.919Z,23.75
2018-08-07T06:06:13.833Z,23.86
2018-08-07T06:07:13.745Z,24.00
2018-08-07T06:08:13.660Z,24.09
2018-08-07T06:09:13.577Z,24.19
2018-08-07T06:10:13.506Z,24.26
2018-08-07T06:11:13.402Z,24.26
2018-08-07T06:12:13.321Z,24.39
2018-08-07T06:13:13.231Z,24.41
2018-08-07T06:14:13.146Z,24.37
2018-08-07T06:15:13.073Z,24.53
2018-08-07T06:16:12.972Z,24.39
2018-08-07T06:17:12.887Z,24.51
2018-08-07T06:18:12.818Z,24.63
2018-08-07T06:19:12.782Z,24.49
2018-08-07T06:20:12.646Z,24.56
2018-08-07T06:21:12.644Z,24.55
2018-08-07T06:22:12.459Z,24.51
2018-08-07T06:23:12.372Z,24.55
2018-08-07T06:24:12.290Z,24.60
2018-08-07T06:25:12.217Z,24.60
2018-08-07T06:26:12.117Z,24.52
2018-08-07T06:27:12.036Z,24.56
2018-08-07T06:28:11.947Z,24.49
2018-08-07T06:29:11.861Z,24.49
2018-08-07T06:30:11.792Z,24.59
2018-08-07T06:31:11.690Z,24.61
2018-08-07T06:32:11.603Z,24.53
2018-08-07T06:33:11.519Z,24.55
2018-08-07T06:34:11.434Z,24.64
2018-08-07T06:35:11.472Z,24.64
2018-08-07T06:36:11.264Z,24.49
2018-08-07T06:37:11.180Z,24.60
2018-08-07T06:38:11.093Z,24.59
2018-08-07T06:39:11.009Z,24.67
2018-08-07T06:40:10.948Z,24.75
2018-08-07T06:41:10.837Z,24.86
2018-08-07T06:42:10.866Z,24.83
2018-08-07T06:43:10.665Z,24.89
2018-08-07T06:44:10.581Z,24.86
2018-08-07T06:45:10.511Z,24.90
2018-08-07T06:46:10.411Z,24.94
2018-08-07T06:47:10.324Z,25.05
2018-08-07T06:48:10.318Z,25.27
2018-08-07T06:49:10.261Z,25.46
2018-08-07T06:50:10.120Z,25.79
2018-08-07T06:51:09.985Z,25.97
2018-08-07T06:52:09.899Z,26.19
2018-08-07T06:53:09.815Z,26.19
2018-08-07T06:54:09.732Z,26.24
2018-08-07T06:55:09.646Z,26.49
2018-08-07T06:56:09.685Z,26.72
2018-08-07T06:57:09.513Z,26.81
2018-08-07T06:58:09.399Z,27.02
2018-08-07T06:59:09.305Z,27.09
2018-08-07T07:00:09.229Z,27.15
2018-08-07T07:01:09.159Z,27.31
2018-08-07T07:02:09.057Z,27.15
2018-08-07T07:03:09.072Z,27.24
2018-08-07T07:04:08.891Z,27.23
2018-08-07T07:05:08.807Z,27.15
2018-08-07T07:06:08.743Z,27.15
2018-08-07T07:07:08.645Z,26.86
2018-08-07T07:08:08.561Z,27.01
2018-08-07T07:09:08.478Z,27.30
2018-08-07T07:10:08.501Z,27.24
2018-08-07T07:11:08.329Z,27.43
2018-08-07T07:12:08.234Z,27.53
2018-08-07T07:13:08.150Z,27.88
2018-08-07T07:14:08.068Z,27.98
2018-08-07T07:15:08.004Z,27.86
2018-08-07T07:16:07.922Z,28.02
2018-08-07T07:17:07.928Z,27.77
2018-08-07T07:18:07.744Z,27.98
2018-08-07T07:19:07.662Z,27.55
2018-08-07T07:20:07.580Z,27.49
2018-08-07T07:21:07.515Z,27.74
2018-08-07T07:22:07.419Z,27.74
2018-08-07T07:23:07.338Z,27.72
2018-08-07T07:24:07.360Z,27.62
2018-08-07T07:25:07.179Z,27.69
2018-08-07T07:26:07.112Z,27.84
2018-08-07T07:27:07.015Z,27.58
2018-08-07T07:28:06.935Z,27.63
2018-08-07T07:29:06.858Z,27.58
2018-08-07T07:30:06.775Z,27.77
2018-08-07T07:31:06.802Z,27.71
2018-08-07T07:32:06.631Z,27.76
2018-08-07T07:33:06.535Z,27.96
2018-08-07T07:34:06.499Z,28.03
2018-08-07T07:35:06.377Z,28.05
2018-08-07T07:36:06.294Z,28.11
2018-08-07T07:37:06.227Z,28.13
2018-08-07T07:38:06.247Z,28.20
2018-08-07T07:39:06.052Z,28.01
2018-08-07T07:40:05.972Z,28.39
2018-08-07T07:41:05.893Z,28.38
2018-08-07T07:42:05.828Z,28.52
2018-08-07T07:43:05.735Z,28.38
2018-08-07T07:44:05.653Z,28.40
2018-08-07T07:45:05.679Z,28.55
2018-08-07T07:46:05.507Z,28.40
2018-08-07T07:47:05.451Z,28.69
2018-08-07T07:48:05.333Z,28.24
2018-08-07T07:49:05.254Z,28.40
2018-08-07T07:50:05.174Z,28.48
2018-08-07T07:51:05.094Z,28.50
2018-08-07T07:52:05.034Z,28.55
2018-08-07T07:53:04.935Z,28.67
2018-08-07T07:54:04.877Z,28.64
2018-08-07T07:55:04.776Z,28.67
2018-08-07T07:56:04.700Z,28.60
2018-08-07T07:57:04.632Z,28.52
2018-08-07T07:58:04.537Z,28.46
2018-08-07T07:59:04.457Z,28.73
2018-08-07T08:00:04.382Z,29.05
2018-08-07T08:01:04.301Z,29.08
2018-08-07T08:02:04.245Z,29.23
2018-08-07T08:03:04.138Z,28.89
2018-08-07T08:04:04.059Z,28.69
2018-08-07T08:05:03.988Z,28.64
2018-08-07T08:06:03.935Z,28.64
2018-08-07T08:07:03.851Z,28.76
2018-08-07T08:08:03.742Z,28.83
2018-08-07T08:09:03.663Z,28.77
2018-08-07T08:10:03.584Z,28.94
2018-08-07T08:11:03.554Z,29.02
2018-08-07T08:12:03.438Z,29.03
2018-08-07T08:13:03.344Z,28.88
2018-08-07T08:14:03.265Z,28.80
2018-08-07T08:15:03.194Z,28.69
2018-08-07T08:16:03.106Z,28.97
2018-08-07T08:17:03.033Z,29.02
2018-08-07T08:18:02.963Z,28.82
2018-08-07T08:19:02.870Z,29.02
2018-08-07T08:20:02.790Z,29.05
2018-08-07T08:21:02.712Z,28.76
2018-08-07T08:22:02.635Z,28.92
2018-08-07T08:23:02.567Z,28.83
2018-08-07T08:24:02.472Z,29.12
2018-08-07T08:25:02.392Z,29.17
2018-08-07T08:26:02.315Z,28.85
2018-08-07T08:27:02.233Z,28.98
2018-08-07T08:28:02.170Z,29.15
2018-08-07T08:29:02.145Z,29.36
2018-08-07T08:30:02.125Z,29.47
2018-08-07T08:31:01.917Z,29.48
2018-08-07T08:32:01.840Z,29.37
2018-08-07T08:33:01.773Z,29.26
2018-08-07T08:34:01.680Z,29.36
2018-08-07T08:35:01.664Z,29.67
2018-08-07T08:36:01.525Z,29.73
2018-08-07T08:37:01.442Z,29.58
2018-08-07T08:38:01.379Z,29.67
2018-08-07T08:39:01.298Z,29.95
2018-08-07T08:40:01.207Z,28.82
2018-08-07T08:41:01.223Z,29.48
2018-08-07T08:42:01.050Z,29.84
2018-08-07T08:43:00.990Z,29.69
2018-08-07T08:44:00.889Z,29.78
2018-08-07T08:45:00.810Z,30.32
2018-08-07T08:46:00.734Z,30.32
2018-08-07T08:47:00.652Z,30.11
2018-08-07T08:48:00.647Z,29.85
2018-08-07T08:49:00.496Z,29.48
2018-08-07T08:50:00.416Z,29.63
2018-08-07T08:51:00.336Z,29.79
2018-08-07T08:52:00.261Z,30.23
2018-08-07T08:53:00.195Z,30.34
2018-08-07T08:54:00.139Z,30.37
2018-08-07T08:55:00.024Z,29.81
2018-08-07T08:55:59.944Z,29.79
2018-08-07T08:56:59.865Z,30.01
2018-08-07T08:57:59.803Z,30.36
2018-08-07T08:58:59.708Z,30.38
2018-08-07T08:59:59.630Z,30.48
2018-08-07T09:00:59.551Z,30.60
2018-08-07T09:01:59.473Z,30.60
2018-08-07T09:02:59.396Z,30.66
2018-08-07T09:03:59.332Z,30.81
2018-08-07T09:04:59.280Z,31.25
2018-08-07T09:05:59.160Z,31.09
2018-08-07T09:06:59.081Z,31.46
2018-08-07T09:07:59.116Z,31.59
2018-08-07T09:08:58.940Z,31.69
2018-08-07T09:09:58.849Z,31.87
2018-08-07T09:10:58.771Z,31.64
2018-08-07T09:11:58.704Z,31.53
2018-08-07T09:12:58.666Z,31.07
2018-08-07T09:13:58.552Z,30.68
2018-08-07T09:14:58.569Z,31.18
2018-08-07T09:15:58.380Z,31.38
2018-08-07T09:16:58.303Z,31.30
2018-08-07T09:17:58.225Z,31.27
2018-08-07T09:18:58.162Z,31.42
2018-08-07T09:19:58.067Z,31.42
2018-08-07T09:20:57.996Z,31.67
2018-08-07T09:21:58.013Z,32.12
2018-08-07T09:22:57.843Z,32.03
2018-08-07T09:23:57.774Z,31.92
2018-08-07T09:24:57.682Z,32.16
2018-08-07T09:25:57.812Z,31.97
2018-08-07T09:26:57.527Z,32.44
2018-08-07T09:27:57.449Z,32.69
2018-08-07T09:28:57.487Z,32.83
2018-08-07T09:29:57.295Z,32.76
2018-08-07T09:30:57.216Z,32.88
2018-08-07T09:31:57.201Z,31.84
2018-08-07T09:32:57.127Z,32.25
2018-08-07T09:33:57.002Z,31.91
2018-08-07T09:34:56.912Z,31.65
2018-08-07T09:35:56.946Z,32.25
2018-08-07T09:36:56.757Z,32.21
2018-08-07T09:37:56.679Z,31.74
2018-08-07T09:38:56.617Z,31.72
2018-08-07T09:39:56.528Z,31.64
2018-08-07T09:40:56.449Z,31.72
2018-08-07T09:41:56.371Z,31.71
2018-08-07T09:42:56.400Z,31.98
2018-08-07T09:43:56.233Z,32.16
2018-08-07T09:44:56.146Z,32.47
2018-08-07T09:45:56.064Z,32.17
2018-08-07T09:46:55.991Z,31.68
2018-08-07T09:47:55.912Z,31.72
2018-08-07T09:48:55.864Z,31.97
2018-08-07T09:49:55.868Z,32.09
2018-08-07T09:50:55.679Z,32.47
2018-08-07T09:51:55.602Z,32.85
2018-08-07T09:52:55.526Z,33.31
2018-08-07T09:53:55.449Z,32.99
2018-08-07T09:54:55.386Z,33.18
2018-08-07T09:55:55.295Z,33.02
2018-08-07T09:56:55.323Z,33.26
2018-08-07T09:57:55.142Z,33.43
2018-08-07T09:58:55.070Z,33.26
2018-08-07T09:59:55.545Z,33.43
2018-08-07T10:00:54.912Z,33.43
2018-08-07T10:01:54.837Z,33.68
2018-08-07T10:02:54.762Z,34.03
2018-08-07T10:03:54.684Z,33.87
2018-08-07T10:04:54.622Z,33.90
2018-08-07T10:05:54.531Z,33.97
2018-08-07T10:06:54.456Z,33.74
2018-08-07T10:07:54.379Z,33.71
2018-08-07T10:08:54.305Z,33.09
2018-08-07T10:09:54.244Z,33.55
2018-08-07T10:10:54.254Z,33.24
2018-08-07T10:11:54.076Z,33.00
2018-08-07T10:12:53.998Z,32.59
2018-08-07T10:13:53.927Z,32.63
2018-08-07T10:14:53.861Z,32.65
2018-08-07T10:15:53.772Z,32.87
2018-08-07T10:16:53.698Z,32.76
2018-08-07T10:17:53.627Z,32.96
2018-08-07T10:18:53.544Z,32.83
2018-08-07T10:19:53.495Z,33.15
2018-08-07T10:20:53.392Z,33.09
2018-08-07T10:21:53.315Z,32.77
2018-08-07T10:22:53.238Z,33.20
2018-08-07T10:23:53.163Z,33.26
2018-08-07T10:24:53.089Z,33.53
2018-08-07T10:25:53.031Z,33.37
2018-08-07T10:26:52.935Z,33.26
2018-08-07T10:27:52.859Z,33.15
2018-08-07T10:28:52.785Z,32.95
2018-08-07T10:29:52.707Z,33.00
2018-08-07T10:30:52.667Z,32.91
2018-08-07T10:31:52.557Z,33.18
2018-08-07T10:32:52.480Z,33.05
2018-08-07T10:33:52.409Z,32.46
2018-08-07T10:34:52.343Z,32.14
2018-08-07T10:35:52.267Z,32.24
2018-08-07T10:36:52.175Z,32.83
2018-08-07T10:37:52.098Z,33.35
2018-08-07T10:38:52.023Z,33.53
2018-08-07T10:39:51.946Z,33.74
2018-08-07T10:40:52.013Z,33.77
2018-08-07T10:41:51.794Z,34.21
2018-08-07T10:42:51.717Z,34.61
2018-08-07T10:43:51.747Z,34.28
2018-08-07T10:44:51.567Z,34.27
2018-08-07T10:45:51.494Z,33.81
2018-08-07T10:46:51.430Z,33.03
2018-08-07T10:47:51.401Z,33.60
2018-08-07T10:48:51.263Z,33.55
2018-08-07T10:49:51.189Z,33.47
2018-08-07T10:50:51.169Z,33.79
2018-08-07T10:51:51.049Z,33.70
2018-08-07T10:52:50.959Z,33.77
2018-08-07T10:53:50.881Z,33.59
2018-08-07T10:54:50.806Z,33.63
2018-08-07T10:55:50.732Z,33.50
2018-08-07T10:56:50.671Z,33.72
2018-08-07T10:57:50.582Z,33.66
2018-08-07T10:58:50.504Z,33.59
2018-08-07T10:59:50.429Z,33.90
2018-08-07T11:00:50.357Z,33.33
2018-08-07T11:01:50.295Z,33.65
2018-08-07T11:02:50.202Z,34.08
2018-08-07T11:03:50.127Z,34.61
2018-08-07T11:04:50.052Z,34.72
2018-08-07T11:05:50.019Z,34.90
2018-08-07T11:06:49.901Z,34.63
2018-08-07T11:07:49.842Z,34.80
2018-08-07T11:08:49.749Z,34.46
2018-08-07T11:09:49.676Z,34.53
2018-08-07T11:10:49.601Z,33.84
2018-08-07T11:11:49.522Z,33.52
2018-08-07T11:12:49.463Z,33.68
2018-08-07T11:13:49.376Z,34.09
2018-08-07T11:14:49.301Z,33.96
2018-08-07T11:15:49.223Z,33.81
2018-08-07T11:16:49.147Z,33.74
2018-08-07T11:17:49.087Z,33.53
2018-08-07T11:18:49.000Z,33.59
2018-08-07T11:19:48.922Z,34.01
2018-08-07T11:20:48.846Z,34.00
2018-08-07T11:21:48.772Z,34.16
2018-08-07T11:22:48.709Z,34.55
2018-08-07T11:23:48.618Z,34.86
2018-08-07T11:24:48.587Z,35.10
2018-08-07T11:25:48.470Z,35.20
2018-08-07T11:26:48.392Z,34.95
2018-08-07T11:27:48.331Z,34.67
2018-08-07T11:28:48.242Z,34.37
2018-08-07T11:29:48.186Z,34.52
2018-08-07T11:30:48.090Z,34.56
2018-08-07T11:31:48.016Z,34.60
2018-08-07T11:32:47.956Z,34.84
2018-08-07T11:33:47.865Z,34.67
2018-08-07T11:34:47.794Z,34.58
2018-08-07T11:35:47.716Z,34.36
2018-08-07T11:36:47.641Z,34.58
2018-08-07T11:37:47.584Z,34.27
2018-08-07T11:38:47.488Z,33.79
2018-08-07T11:39:47.416Z,33.12
2018-08-07T11:40:47.346Z,33.17
2018-08-07T11:41:47.265Z,33.28
2018-08-07T11:42:47.204Z,33.18
2018-08-07T11:43:47.116Z,32.73
2018-08-07T11:44:47.039Z,33.14
2018-08-07T11:45:46.982Z,33.29
2018-08-07T11:46:46.890Z,33.45
2018-08-07T11:47:46.817Z,33.62
2018-08-07T11:48:46.756Z,33.68
2018-08-07T11:49:46.662Z,33.56
2018-08-07T11:50:46.592Z,33.22
2018-08-07T11:51:46.515Z,33.60
2018-08-07T11:52:46.437Z,33.99
2018-08-07T11:53:46.375Z,34.46
2018-08-07T11:54:46.588Z,34.83
2018-08-07T11:55:46.211Z,34.72
2018-08-07T11:56:46.133Z,34.60
2018-08-07T11:57:46.058Z,34.52
2018-08-07T11:58:45.996Z,34.71
2018-08-07T11:59:45.908Z,34.52
2018-08-07T12:00:45.830Z,34.43
2018-08-07T12:01:45.875Z,34.56
2018-08-07T12:02:45.682Z,34.69
2018-08-07T12:03:45.619Z,35.10
2018-08-07T12:04:45.532Z,35.43
2018-08-07T12:05:45.453Z,35.12
2018-08-07T12:06:45.377Z,35.17
2018-08-07T12:07:45.303Z,34.95
2018-08-07T12:08:45.360Z,34.90
2018-08-07T12:09:45.153Z,34.61
2018-08-07T12:10:45.083Z,34.43
2018-08-07T12:11:45.002Z,34.91
2018-08-07T12:12:44.939Z,33.92
2018-08-07T12:13:44.869Z,33.41
2018-08-07T12:14:44.778Z,33.71
2018-08-07T12:15:44.807Z,34.18
2018-08-07T12:16:44.627Z,34.53
2018-08-07T12:17:44.552Z,34.93
2018-08-07T12:18:44.491Z,34.91
2018-08-07T12:19:44.402Z,34.71
2018-08-07T12:20:44.330Z,35.10
2018-08-07T12:21:44.282Z,34.73
2018-08-07T12:22:44.183Z,34.98
2018-08-07T12:23:44.119Z,35.10
2018-08-07T12:24:44.027Z,35.03
2018-08-07T12:25:43.952Z,35.17
2018-08-07T12:26:43.880Z,34.48
2018-08-07T12:27:43.825Z,33.57
2018-08-07T12:28:43.744Z,33.20
2018-08-07T12:29:43.652Z,33.72
2018-08-07T12:30:43.578Z,34.16
2018-08-07T12:31:43.505Z,33.84
2018-08-07T12:32:43.427Z,34.18
2018-08-07T12:33:43.353Z,34.45
2018-08-07T12:34:43.292Z,34.42
2018-08-07T12:35:43.307Z,34.46
2018-08-07T12:36:43.127Z,34.73
2018-08-07T12:37:43.052Z,35.06
2018-08-07T12:38:42.977Z,35.31
2018-08-07T12:39:42.918Z,35.40
2018-08-07T12:40:42.827Z,35.77
2018-08-07T12:41:42.752Z,34.91
2018-08-07T12:42:42.781Z,34.56
2018-08-07T12:43:42.602Z,34.67
2018-08-07T12:44:42.543Z,34.76
2018-08-07T12:45:42.456Z,34.83
2018-08-07T12:46:42.414Z,34.87
2018-08-07T12:47:42.307Z,34.93
2018-08-07T12:48:42.229Z,34.42
2018-08-07T12:49:42.263Z,33.66
2018-08-07T12:50:42.099Z,32.95
2018-08-07T12:51:42.005Z,33.14